Time;durP1;ratioP1;P1;durP2;ratioP2;P2;SDS_P1;SDS_P2;PMS_P1;PMS_P2;Temp;Humidity;BMP_temperature;BMP_pressure;BME280_temperature;BME280_humidity;BME280_pressure;Samples;Min_cycle;Max_cycle;Signal;HPM_P1;HPM_P2
2023/10/04 00:00:18;;;;;;;6.07;1.02;;;10.30;99.90;;;;;;4977365;28;20054;-77
2023/10/04 00:02:52;;;;;;;8.93;1.60;;;10.20;99.90;;;;;;4977842;28;20065;-77
2023/10/04 00:05:19;;;;;;;9.00;1.00;;;10.20;99.90;;;;;;4978438;28;20050;-83
2023/10/04 00:07:55;;;;;;;11.45;1.55;;;10.20;99.90;;;;;;4978719;28;20086;-76
2023/10/04 00:10:24;;;;;;;6.20;1.80;;;;;;;;;;4977798;28;20090;-80
2023/10/04 00:12:50;;;;;;;6.68;1.42;;;;;;;;;;4978171;28;20112;-77
2023/10/04 00:15:25;;;;;;;9.35;1.50;;;;;;;;;;4977011;28;20144;-80
2023/10/04 00:17:52;;;;;;;7.88;2.25;;;10.20;99.90;;;;;;4977168;28;20088;-78
2023/10/04 00:20:19;;;;;;;8.15;1.20;;;10.20;99.90;;;;;;4977182;28;20058;-78
2023/10/04 00:22:46;;;;;;;8.60;1.42;;;;;;;;;;4977315;28;20053;-76
2023/10/04 00:25:16;;;;;;;11.93;1.83;;;10.30;99.90;;;;;;4977540;28;20122;-76
2023/10/04 00:27:43;;;;;;;16.63;1.30;;;10.40;99.90;;;;;;4977545;28;20513;-76
2023/10/04 00:30:14;;;;;;;12.43;2.63;;;10.40;99.90;;;;;;4993943;28;20057;-81
2023/10/04 00:32:41;;;;;;;9.15;2.03;;;10.40;99.90;;;;;;4976335;28;20268;-79
2023/10/04 00:35:19;;;;;;;18.80;1.73;;;;;;;;;;4975849;28;20042;-83
2023/10/04 00:37:52;;;;;;;9.55;2.40;;;10.50;99.90;;;;;;4992202;28;20048;-77
2023/10/04 00:40:30;;;;;;;12.95;1.70;;;10.30;99.90;;;;;;4975897;28;20580;-80
2023/10/04 00:42:57;;;;;;;8.60;1.77;;;;;;;;;;4974431;28;20077;-76
2023/10/04 00:45:27;;;;;;;10.95;2.20;;;;;;;;;;4989031;28;20058;-76
2023/10/04 00:47:57;;;;;;;10.20;1.60;;;10.70;99.90;;;;;;4974849;28;20613;-80
2023/10/04 00:50:26;;;;;;;7.68;1.27;;;10.70;99.90;;;;;;4992074;28;20050;-77
2023/10/04 00:53:08;;;;;;;8.52;1.30;;;11.00;99.90;;;;;;4975285;28;20517;-81
2023/10/04 00:55:34;;;;;;;11.07;2.45;;;;;;;;;;4974714;28;20482;-80
2023/10/04 00:58:06;;;;;;;13.18;1.65;;;10.80;99.90;;;;;;4976199;28;20057;-77
2023/10/04 01:00:32;;;;;;;12.38;1.38;;;;;;;;;;4975330;28;20058;-79
2023/10/04 01:02:59;;;;;;;15.70;2.72;;;;;;;;;;4977008;28;20054;-77
2023/10/04 01:05:27;;;;;;;12.48;1.60;;;10.70;99.90;;;;;;4992964;28;20053;-78
2023/10/04 01:07:57;;;;;;;7.47;1.75;;;10.80;99.90;;;;;;4974263;28;20062;-80
2023/10/04 01:10:34;;;;;;;14.23;1.52;;;;;;;;;;4960087;28;20106;-76
2023/10/04 01:13:06;;;;;;;10.27;1.45;;;;;;;;;;4976645;28;20046;-82
2023/10/04 01:15:39;;;;;;;8.45;1.23;;;10.70;99.90;;;;;;4976128;28;20489;-79
2023/10/04 01:18:05;;;;;;;10.48;1.63;;;;;;;;;;4975658;28;20042;-80
2023/10/04 01:20:33;;;;;;;7.82;1.45;;;;;;;;;;4976115;28;20057;-76
2023/10/04 01:23:06;;;;;;;8.07;1.67;;;10.60;99.90;;;;;;4976253;28;20062;-76
2023/10/04 01:25:37;;;;;;;12.98;2.00;;;10.70;99.90;;;;;;4976205;28;20075;-77
2023/10/04 01:28:26;;;;;;;13.30;1.50;;;10.60;99.90;;;;;;4974722;28;20054;-80
2023/10/04 01:30:53;;;;;;;13.77;3.30;;;;;;;;;;4974165;28;20116;-75
2023/10/04 01:33:19;;;;;;;9.88;1.50;;;;;;;;;;4974686;28;20042;-75
2023/10/04 01:36:03;;;;;;;11.68;1.55;;;10.60;99.90;;;;;;4974632;28;20057;-78
2023/10/04 01:38:29;;;;;;;14.95;1.58;;;;;;;;;;4975202;28;20153;-78
2023/10/04 01:40:56;;;;;;;16.15;1.77;;;10.60;99.90;;;;;;4974785;28;20132;-79
2023/10/04 01:43:24;;;;;;;20.25;2.42;;;;;;;;;;4975907;28;20606;-79
2023/10/04 01:45:50;;;;;;;10.05;1.65;;;;;;;;;;4976184;28;20766;-78
2023/10/04 01:48:20;;;;;;;13.13;1.80;;;;;;;;;;4975951;28;20060;-75
2023/10/04 01:50:52;;;;;;;13.82;1.80;;;10.60;99.90;;;;;;4976448;28;20054;-80
2023/10/04 01:53:24;;;;;;;8.00;1.65;;;10.60;99.90;;;;;;4975821;28;20742;-76
2023/10/04 01:55:50;;;;;;;16.33;2.90;;;;;;;;;;4992182;28;20050;-79
2023/10/04 01:58:18;;;;;;;10.35;1.45;;;;;;;;;;4975863;28;20056;-81
2023/10/04 02:00:44;;;;;;;10.98;1.65;;;;;;;;;;4976170;28;20572;-77
2023/10/04 02:03:10;;;;;;;15.85;2.53;;;;;;;;;;4975827;28;20141;-76
2023/10/04 02:05:40;;;;;;;10.95;2.10;;;;;;;;;;4975845;28;20085;-80
2023/10/04 02:08:08;;;;;;;10.57;2.03;;;10.80;99.90;;;;;;4975252;28;20058;-79
2023/10/04 02:10:35;;;;;;;14.93;2.08;;;;;;;;;;4992012;28;20062;-81
2023/10/04 02:13:02;;;;;;;15.07;2.17;;;;;;;;;;4975110;28;20416;-78
2023/10/04 02:15:28;;;;;;;14.48;2.00;;;;;;;;;;4975033;28;20050;-81
2023/10/04 02:17:54;;;;;;;15.57;2.58;;;;;;;;;;4975037;28;20125;-80
2023/10/04 02:20:29;;;;;;;13.02;1.83;;;;;;;;;;4975578;28;20050;-77
2023/10/04 02:22:57;;;;;;;17.13;2.20;;;;;;;;;;4974553;28;20557;-80
2023/10/04 02:25:24;;;;;;;17.92;2.05;;;;;;;;;;4973840;28;20046;-75
2023/10/04 02:27:52;;;;;;;16.20;2.05;;;;;;;;;;4973422;28;20062;-78
2023/10/04 02:30:24;;;;;;;11.63;3.20;;;10.80;99.90;;;;;;4973911;28;20055;-81
2023/10/04 02:32:51;;;;;;;10.02;1.73;;;;;;;;;;4973631;28;20061;-76
2023/10/04 02:35:34;;;;;;;15.85;2.13;;;10.70;99.90;;;;;;4973788;28;20061;-78
2023/10/04 02:38:00;;;;;;;16.30;1.90;;;;;;;;;;4974745;28;20121;-81
2023/10/04 02:40:32;;;;;;;19.20;2.22;;;10.70;99.90;;;;;;4990928;28;20568;-77
2023/10/04 02:42:59;;;;;;;15.60;2.00;;;;;;;;;;4974816;28;20054;-78
2023/10/04 02:45:26;;;;;;;11.93;2.22;;;;;;;;;;4975297;28;20125;-79
2023/10/04 02:47:53;;;;;;;16.02;2.42;;;10.70;99.90;;;;;;4991462;28;20085;-80
2023/10/04 02:50:22;;;;;;;14.52;2.20;;;10.70;99.90;;;;;;4991572;28;20638;-79
2023/10/04 02:52:50;;;;;;;12.02;2.30;;;;;;;;;;4958845;28;20042;-78
2023/10/04 02:55:17;;;;;;;18.95;2.17;;;;;;;;;;4974477;28;20093;-78
2023/10/04 02:57:51;;;;;;;14.38;2.10;;;10.70;99.90;;;;;;4974633;28;20567;-78
2023/10/04 03:00:19;;;;;;;18.90;2.47;;;10.80;99.90;;;;;;4974372;28;20054;-82
2023/10/04 03:02:47;;;;;;;11.30;1.77;;;10.80;99.90;;;;;;4958691;28;20050;-79
2023/10/04 03:05:17;;;;;;;17.73;2.88;;;;;;;;;;4974766;28;20695;-77
2023/10/04 03:07:43;;;;;;;12.02;3.47;;;;;;;;;;4974598;28;20054;-80
2023/10/04 03:10:13;;;;;;;16.08;2.03;;;10.70;99.90;;;;;;4974694;28;20133;-81
2023/10/04 03:12:41;;;;;;;13.05;3.00;;;;;;;;;;4958499;28;20050;-77
2023/10/04 03:15:07;;;;;;;12.45;2.30;;;;;;;;;;4974280;28;20057;-80
2023/10/04 03:17:33;;;;;;;11.68;1.85;;;;;;;;;;4973953;28;20086;-76
2023/10/04 03:20:15;;;;;;;14.63;2.22;;;;;;;;;;4972913;28;20054;-77
2023/10/04 03:22:42;;;;;;;11.85;2.30;;;;;;;;;;4973172;28;20088;-79
2023/10/04 03:25:10;;;;;;;16.17;2.20;;;10.70;99.90;;;;;;4973008;28;20124;-76
2023/10/04 03:27:36;;;;;;;18.08;2.75;;;;;;;;;;4973169;28;20090;-81
2023/10/04 03:30:05;;;;;;;16.58;2.35;;;;;;;;;;4973038;28;20050;-81
2023/10/04 03:32:31;;;;;;;14.18;2.35;;;;;;;;;;4973078;28;20125;-79
2023/10/04 03:34:57;;;;;;;19.23;2.38;;;;;;;;;;4973733;28;20046;-81
2023/10/04 03:37:29;;;;;;;13.60;2.60;;;;;;;;;;4974711;28;20115;-78
2023/10/04 03:39:56;;;;;;;14.82;2.28;;;;;;;;;;4974316;28;20068;-80
2023/10/04 03:42:23;;;;;;;17.00;2.83;;;;;;;;;;4973777;28;20062;-80
2023/10/04 03:44:49;;;;;;;18.15;3.67;;;;;;;;;;4973919;28;20061;-81
2023/10/04 03:47:15;;;;;;;15.65;2.65;;;;;;;;;;4973386;28;20077;-78
2023/10/04 03:49:43;;;;;;;15.75;3.58;;;;;;;;;;4973991;28;20054;-78
2023/10/04 03:52:10;;;;;;;20.63;2.75;;;;;;;;;;4974139;28;20050;-79
2023/10/04 03:54:37;;;;;;;20.25;3.20;;;;;;;;;;4973722;28;20065;-79
2023/10/04 03:57:06;;;;;;;18.80;2.42;;;;;;;;;;4973711;28;20089;-79
2023/10/04 03:59:32;;;;;;;16.65;4.10;;;;;;;;;;4974237;28;20165;-80
2023/10/04 04:01:58;;;;;;;14.23;2.28;;;;;;;;;;4974134;28;20050;-81
2023/10/04 04:04:24;;;;;;;17.77;2.63;;;;;;;;;;4974519;28;20089;-76
2023/10/04 04:06:50;;;;;;;16.85;2.15;;;;;;;;;;4973830;28;20097;-78
2023/10/04 04:09:17;;;;;;;17.73;2.30;;;;;;;;;;4973603;28;20050;-75
2023/10/04 04:11:43;;;;;;;17.30;2.67;;;;;;;;;;4974251;28;20057;-81
2023/10/04 04:14:10;;;;;;;16.23;2.92;;;;;;;;;;4974141;28;20548;-76
2023/10/04 04:16:37;;;;;;;13.43;2.58;;;;;;;;;;4974054;28;20357;-81
2023/10/04 04:19:03;;;;;;;17.58;2.67;;;;;;;;;;4975854;28;21065;-79
2023/10/04 04:21:33;;;;;;;19.52;3.60;;;;;;;;;;4976977;28;20813;-83
2023/10/04 04:23:59;;;;;;;17.08;2.50;;;;;;;;;;4977147;28;20145;-81
2023/10/04 04:26:27;;;;;;;18.52;2.60;;;;;;;;;;4977178;28;20054;-77
2023/10/04 04:28:55;;;;;;;29.50;3.92;;;;;;;;;;4977313;28;20050;-81
2023/10/04 04:31:21;;;;;;;18.63;2.90;;;;;;;;;;4974805;28;20062;-81
2023/10/04 04:33:47;;;;;;;13.40;2.20;;;;;;;;;;4977045;28;20050;-80
2023/10/04 04:36:25;;;;;;;16.42;3.83;;;;;;;;;;4977706;28;20964;-82
2023/10/04 04:38:53;;;;;;;13.88;2.30;;;;;;;;;;4977438;28;20104;-79
2023/10/04 04:41:24;;;;;;;23.65;3.20;;;;;;;;;;4993378;28;20061;-82
2023/10/04 04:43:50;;;;;;;18.53;2.50;;;;;;;;;;4993130;28;20140;-76
2023/10/04 04:46:18;;;;;;;16.75;3.65;;;;;;;;;;4976949;28;20043;-78
2023/10/04 04:48:48;;;;;;;24.55;3.45;;;;;;;;;;4976450;28;20054;-76
2023/10/04 04:51:15;;;;;;;19.23;2.83;;;10.20;99.90;;;;;;4976806;28;20065;-80
2023/10/04 04:53:47;;;;;;;16.15;2.95;;;10.20;99.90;;;;;;4976090;28;20871;-77
2023/10/04 04:56:14;;;;;;;26.40;3.53;;;;;;;;;;4972306;28;20058;-80
2023/10/04 04:58:47;;;;;;;18.80;3.05;;;10.20;99.90;;;;;;4976734;28;20050;-79
2023/10/04 05:01:14;;;;;;;17.88;3.50;;;;;;;;;;4976394;28;20054;-78
2023/10/04 05:03:47;;;;;;;18.80;3.42;;;10.20;99.90;;;;;;4992677;28;20119;-79
2023/10/04 05:06:16;;;;;;;14.35;3.08;;;;;;;;;;4992513;28;20062;-76
2023/10/04 05:08:42;;;;;;;17.88;3.00;;;10.20;99.90;;;;;;4975883;28;20050;-80
2023/10/04 05:11:09;;;;;;;15.63;3.35;;;;;;;;;;4974259;28;20096;-77
2023/10/04 05:13:36;;;;;;;17.42;3.72;;;;;;;;;;4974834;28;20768;-81
2023/10/04 05:16:04;;;;;;;16.30;3.20;;;;;;;;;;4974386;28;20135;-80
2023/10/04 05:18:30;;;;;;;20.45;3.10;;;;;;;;;;4974861;28;20173;-81
2023/10/04 05:21:00;;;;;;;17.98;3.53;;;;;;;;;;4973727;28;20148;-82
2023/10/04 05:23:29;;;;;;;17.67;3.22;;;10.80;99.90;;;;;;4974823;28;20057;-82
2023/10/04 05:25:55;;;;;;;18.50;3.95;;;;;;;;;;4959478;28;20054;-78
2023/10/04 05:28:24;;;;;;;18.75;3.20;;;;;;;;;;4976039;28;20445;-84
2023/10/04 05:30:51;;;;;;;20.05;3.35;;;;;;;;;;4974767;28;20054;-77
2023/10/04 05:33:21;;;;;;;14.77;3.25;;;10.30;99.90;;;;;;4975869;28;20054;-81
2023/10/04 05:35:52;;;;;;;14.55;3.45;;;10.30;99.90;;;;;;4992056;28;20213;-80
2023/10/04 05:38:19;;;;;;;14.47;2.93;;;;;;;;;;4976125;28;20057;-78
2023/10/04 05:40:46;;;;;;;17.35;3.53;;;10.30;99.90;;;;;;4976057;28;20353;-80
2023/10/04 05:43:13;;;;;;;16.13;3.60;;;;;;;;;;4975627;28;20133;-78
2023/10/04 05:45:42;;;;;;;17.95;3.42;;;;;;;;;;4975748;28;20054;-82
2023/10/04 05:48:09;;;;;;;18.20;3.90;;;10.60;99.90;;;;;;4975852;28;20511;-82
2023/10/04 05:50:35;;;;;;;23.83;4.13;;;;;;;;;;4975504;28;20090;-78
2023/10/04 05:53:05;;;;;;;15.77;3.25;;;;;;;;;;4975558;28;20086;-82
2023/10/04 05:55:34;;;;;;;19.17;3.85;;;;;;;;;;4991112;28;20057;-78
2023/10/04 05:58:02;;;;;;;23.55;3.75;;;10.70;99.90;;;;;;4975077;28;20108;-75
2023/10/04 06:00:33;;;;;;;17.25;4.10;;;;;;;;;;4974260;28;20117;-75
2023/10/04 06:03:06;;;;;;;17.83;4.13;;;10.80;99.90;;;;;;4974254;28;20045;-79
2023/10/04 06:05:37;;;;;;;16.63;4.20;;;10.80;99.90;;;;;;4973603;28;20057;-76
2023/10/04 06:08:10;;;;;;;28.33;6.35;;;10.90;99.90;;;;;;4968138;28;20735;-79
2023/10/04 06:10:37;;;;;;;22.95;4.32;;;;;;;;;;4967944;28;20129;-82
2023/10/04 06:13:03;;;;;;;15.75;3.75;;;;;;;;;;4989915;28;20058;-77
2023/10/04 06:15:30;;;;;;;22.17;4.15;;;;;;;;;;4975115;28;20051;-75
2023/10/04 06:17:57;;;;;;;16.52;3.60;;;11.00;99.90;;;;;;4975422;28;20050;-79
2023/10/04 06:23:05;;;;;;;15.77;3.55;;;11.10;99.90;;;;;;4976076;28;20468;-80
2023/10/04 06:25:33;;;;;;;15.82;3.50;;;11.10;99.90;;;;;;4975014;28;20058;-78
2023/10/04 06:28:01;;;;;;;13.30;3.42;;;11.10;99.90;;;;;;4973072;28;20046;-77
2023/10/04 06:30:31;;;;;;;17.38;4.25;;;11.20;99.90;;;;;;4973337;28;20050;-80
2023/10/04 06:33:02;;;;;;;16.25;3.85;;;11.30;99.90;;;;;;4989524;28;20073;-79
2023/10/04 06:35:29;;;;;;;16.58;4.75;;;11.30;99.90;;;;;;4972386;28;20058;-77
2023/10/04 06:37:57;;;;;;;18.10;3.50;;;11.30;99.90;;;;;;4988159;28;20523;-82
2023/10/04 06:40:24;;;;;;;16.88;4.88;;;11.50;99.90;;;;;;4972181;28;20198;-78
2023/10/04 06:42:52;;;;;;;17.60;3.80;;;11.60;99.90;;;;;;4973240;28;20058;-78
2023/10/04 06:45:19;;;;;;;17.88;4.13;;;11.70;99.90;;;;;;4972687;28;20144;-76
2023/10/04 06:47:49;;;;;;;28.70;4.13;;;11.80;99.90;;;;;;4989451;28;20113;-76
2023/10/04 06:50:28;;;;;;;16.92;3.60;;;10.00;99.90;;;;;;4974070;28;20532;-78
2023/10/04 06:52:57;;;;;;;15.20;3.13;;;11.90;99.90;;;;;;4989860;28;20073;-80
2023/10/04 06:55:23;;;;;;;14.75;3.45;;;;;;;;;;4973031;28;20858;-81
2023/10/04 06:57:49;;;;;;;26.67;4.25;;;;;;;;;;4973610;28;20054;-79
2023/10/04 07:00:18;;;;;;;11.63;3.15;;;12.40;99.90;;;;;;4973934;28;20042;-78
2023/10/04 07:02:47;;;;;;;14.90;3.10;;;12.40;99.90;;;;;;4974002;28;20165;-77
2023/10/04 07:05:23;;;;;;;17.75;3.58;;;12.20;99.90;;;;;;4973985;28;20129;-77
2023/10/04 07:07:53;;;;;;;12.52;2.97;;;12.40;99.90;;;;;;4974062;28;20108;-76
2023/10/04 07:10:21;;;;;;;16.23;4.20;;;12.40;99.90;;;;;;4974138;28;20059;-76
2023/10/04 07:12:56;;;;;;;15.27;3.40;;;9.90;99.90;;;;;;4973956;28;20054;-83
2023/10/04 07:15:24;;;;;;;14.30;2.85;;;12.90;99.90;;;;;;4990016;28;20148;-79
2023/10/04 07:17:51;;;;;;;16.88;2.92;;;13.00;99.90;;;;;;4974220;28;20058;-75
2023/10/04 07:20:18;;;;;;;16.73;3.17;;;10.20;99.90;;;;;;4990921;28;20493;-82
2023/10/04 07:22:45;;;;;;;10.35;2.38;;;;;;;;;;4974382;28;20065;-79
2023/10/04 07:25:15;;;;;;;10.98;2.65;;;13.20;99.90;;;;;;4990472;28;20051;-80
2023/10/04 07:27:45;;;;;;;15.13;2.80;;;13.20;99.90;;;;;;4974241;28;20054;-80
2023/10/04 07:30:12;;;;;;;9.88;2.88;;;13.20;99.90;;;;;;4990272;28;20050;-76
2023/10/04 07:32:43;;;;;;;12.13;2.72;;;13.30;99.90;;;;;;4989842;28;20089;-77
2023/10/04 07:35:16;;;;;;;16.73;4.55;;;13.30;99.90;;;;;;4972851;28;20085;-80
2023/10/04 07:37:42;;;;;;;16.98;4.38;;;;;;;;;;4990491;28;20409;-78
2023/10/04 07:40:09;;;;;;;16.10;2.92;;;13.40;99.90;;;;;;4972398;28;20099;-84
2023/10/04 07:42:38;;;;;;;13.75;2.53;;;13.50;99.90;;;;;;4973888;28;20141;-77
2023/10/04 07:45:07;;;;;;;11.82;2.60;;;13.60;99.90;;;;;;4974464;28;20133;-78
2023/10/04 07:47:52;;;;;;;17.27;3.75;;;13.70;99.90;;;;;;4989812;28;20057;-79
2023/10/04 07:50:22;;;;;;;13.25;3.00;;;13.70;99.90;;;;;;4974004;28;20054;-77
2023/10/04 07:52:50;;;;;;;10.35;2.90;;;13.80;99.90;;;;;;4990032;28;20744;-76
2023/10/04 07:55:19;;;;;;;20.73;3.88;;;;;;;;;;4975779;28;20608;-77
2023/10/04 07:57:46;;;;;;;17.50;2.60;;;13.80;99.90;;;;;;4975625;28;20049;-79
2023/10/04 08:00:15;;;;;;;15.32;3.92;;;;;;;;;;4993816;28;20049;-76
2023/10/04 08:02:46;;;;;;;12.18;2.72;;;14.10;99.90;;;;;;4977126;28;20054;-77
2023/10/04 08:05:33;;;;;;;11.75;2.92;;;14.20;99.90;;;;;;4993461;28;20096;-79
2023/10/04 08:08:00;;;;;;;14.52;2.30;;;14.30;99.90;;;;;;4977234;28;20112;-76
2023/10/04 08:10:29;;;;;;;9.35;2.47;;;14.30;99.90;;;;;;4993483;28;20065;-77
2023/10/04 08:12:59;;;;;;;14.63;3.58;;;14.40;99.90;;;;;;4972792;28;20046;-77
2023/10/04 08:15:26;;;;;;;11.20;3.65;;;14.50;99.90;;;;;;4991316;28;20050;-77
2023/10/04 08:17:54;;;;;;;13.75;2.40;;;14.60;99.90;;;;;;4976672;28;20100;-79
2023/10/04 08:20:22;;;;;;;12.20;3.25;;;14.80;99.90;;;;;;4976111;28;20057;-80
2023/10/04 08:22:48;;;;;;;15.05;2.95;;;;;;;;;;4975920;28;20128;-79
2023/10/04 08:25:23;;;;;;;15.73;2.97;;;15.50;99.90;;;;;;4976288;28;20769;-80
2023/10/04 08:27:49;;;;;;;15.85;2.42;;;;;;;;;;4975751;28;20054;-77
2023/10/04 08:30:16;;;;;;;11.10;2.53;;;16.30;99.90;;;;;;4975485;28;20053;-80
2023/10/04 08:32:45;;;;;;;10.68;2.72;;;15.90;99.90;;;;;;4975409;28;20054;-76
2023/10/04 08:35:27;;;;;;;13.57;3.50;;;17.90;99.90;;;;;;4991561;28;20422;-79
2023/10/04 08:38:06;;;;;;;9.13;2.30;;;17.20;99.90;;;;;;4992102;28;20056;-78
2023/10/04 08:40:36;;;;;;;12.10;3.05;;;17.80;99.90;;;;;;4977250;28;20062;-80
2023/10/04 08:43:04;;;;;;;14.00;2.75;;;17.80;99.90;;;;;;4976513;28;20081;-75
2023/10/04 08:45:30;;;;;;;10.75;2.53;;;17.50;99.90;;;;;;4976296;28;20085;-78
2023/10/04 08:47:58;;;;;;;14.23;3.03;;;17.90;99.90;;;;;;4976348;28;20940;-79
2023/10/04 08:50:55;;;;;;;8.63;2.20;;;17.80;99.90;;;;;;4975872;28;20054;-76
2023/10/04 08:53:40;;;;;;;14.43;2.72;;;14.20;99.90;;;;;;4976491;28;20042;-76
2023/10/04 08:56:13;;;;;;;14.27;2.80;;;17.40;99.90;;;;;;4975640;28;20050;-77
2023/10/04 08:58:43;;;;;;;15.40;2.85;;;17.20;99.90;;;;;;4976642;28;20153;-77
2023/10/04 09:01:11;;;;;;;11.07;2.75;;;17.10;99.90;;;;;;4976468;28;20061;-72
2023/10/04 09:03:40;;;;;;;14.70;3.20;;;16.80;99.90;;;;;;4975908;28;20621;-80
2023/10/04 09:06:10;;;;;;;11.05;2.20;;;17.00;99.90;;;;;;4975229;28;20144;-77
2023/10/04 09:08:39;;;;;;;14.88;3.22;;;17.00;99.90;;;;;;4976042;28;20053;-76
2023/10/04 09:11:10;;;;;;;10.68;2.47;;;17.30;99.90;;;;;;4975865;28;20124;-79
2023/10/04 09:13:56;;;;;;;14.03;3.07;;;17.20;99.90;;;;;;4976096;28;20065;-77
2023/10/04 09:16:29;;;;;;;11.88;2.42;;;17.30;99.90;;;;;;4975808;28;20065;-75
2023/10/04 09:19:18;;;;;;;11.88;3.33;;;17.40;99.90;;;;;;4960079;28;20058;-76
2023/10/04 09:21:51;;;;;;;13.40;3.70;;;17.30;99.90;;;;;;4975941;28;20137;-79
2023/10/04 09:24:17;;;;;;;12.15;4.47;;;17.30;99.90;;;;;;4976256;28;20050;-77
2023/10/04 09:26:54;;;;;;;12.02;3.55;;;17.30;99.90;;;;;;4992189;28;20082;-79
2023/10/04 09:29:36;;;;;;;11.18;2.00;;;17.50;99.90;;;;;;4975988;28;20061;-77
2023/10/04 09:32:02;;;;;;;;;;;17.40;99.90;;;;;;4956044;28;20061;-79
2023/10/04 09:34:28;;;;;;;11.95;2.22;;;17.40;99.90;;;;;;4975904;28;19925;-77
2023/10/04 09:36:55;;;;;;;17.45;2.83;;;17.30;99.90;;;;;;4975981;28;20054;-75
2023/10/04 09:39:27;;;;;;;14.35;3.08;;;17.40;99.90;;;;;;4975803;28;20050;-78
2023/10/04 09:41:56;;;;;;;12.48;3.15;;;17.30;99.90;;;;;;4976132;28;20050;-78
2023/10/04 09:44:29;;;;;;;14.32;3.05;;;17.40;99.90;;;;;;4975157;28;20086;-79
2023/10/04 09:46:59;;;;;;;7.90;2.63;;;17.50;99.90;;;;;;4974866;28;20057;-74
2023/10/04 09:49:28;;;;;;;19.10;3.25;;;17.60;99.90;;;;;;4973304;28;20054;-76
2023/10/04 09:51:55;;;;;;;12.57;2.60;;;17.50;99.90;;;;;;4973093;28;20129;-75
2023/10/04 09:54:24;;;;;;;13.02;3.13;;;17.50;99.90;;;;;;4972905;28;20121;-79
2023/10/04 09:56:52;;;;;;;9.02;2.20;;;17.50;99.90;;;;;;4972763;28;20050;-78
2023/10/04 09:59:20;;;;;;;11.75;3.05;;;17.60;99.90;;;;;;4989109;28;20054;-80
2023/10/04 10:01:57;;;;;;;14.45;3.50;;;17.60;99.90;;;;;;4972603;28;20058;-77
2023/10/04 10:04:27;;;;;;;10.40;2.70;;;17.70;99.90;;;;;;4970397;28;20046;-77
2023/10/04 10:07:16;;;;;;;11.55;2.70;;;17.80;99.90;;;;;;4990537;28;20794;-78
2023/10/04 10:10:04;;;;;;;12.10;2.90;;;18.00;99.90;;;;;;4958134;28;20066;-75
2023/10/04 10:12:31;;;;;;;9.77;2.85;;;18.40;99.90;;;;;;4975546;28;20057;-75
2023/10/04 10:15:04;;;;;;;12.30;3.15;;;18.40;99.90;;;;;;4975687;28;20054;-77
2023/10/04 10:17:30;;;;;;;9.05;3.05;;;18.40;99.90;;;;;;4975006;28;20077;-77
2023/10/04 10:19:58;;;;;;;10.02;3.13;;;18.40;99.90;;;;;;4973613;28;20054;-74
2023/10/04 10:22:23;;;;;;;12.43;3.40;;;18.40;99.90;;;;;;4973639;28;20057;-76
2023/10/04 10:24:55;;;;;;;15.85;3.67;;;18.20;99.90;;;;;;4974557;28;20054;-76
2023/10/04 10:27:23;;;;;;;8.88;2.40;;;18.20;99.90;;;;;;4975305;28;20046;-77
2023/10/04 10:29:50;;;;;;;9.85;3.28;;;18.20;99.90;;;;;;4970217;28;20129;-76
2023/10/04 10:32:22;;;;;;;10.68;2.88;;;18.10;99.90;;;;;;4973259;28;20048;-76
2023/10/04 10:35:08;;;;;;;12.18;3.35;;;17.90;99.90;;;;;;4973404;28;20050;-76
2023/10/04 10:37:38;;;;;;;10.73;2.75;;;17.70;99.90;;;;;;4988882;28;20097;-74
2023/10/04 10:40:24;;;;;;;12.93;3.00;;;17.50;99.90;;;;;;4988145;28;20116;-74
2023/10/04 10:43:09;;;;;;;12.88;3.38;;;17.40;99.90;;;;;;4965675;28;20136;-78
2023/10/04 10:45:35;;;;;;;13.57;3.22;;;17.30;99.90;;;;;;4973303;28;20046;-77
2023/10/04 10:48:06;;;;;;;13.38;3.65;;;17.30;99.90;;;;;;4973452;28;20104;-78
2023/10/04 10:50:39;;;;;;;13.77;3.72;;;17.20;99.90;;;;;;4973795;28;20128;-76
2023/10/04 10:53:08;;;;;;;10.55;2.90;;;17.20;99.90;;;;;;4975080;28;20057;-76
2023/10/04 10:55:35;;;;;;;11.52;3.85;;;17.20;99.90;;;;;;4974188;28;20091;-77
2023/10/04 10:58:01;;;;;;;14.38;3.35;;;17.10;99.90;;;;;;4974322;28;20054;-75
2023/10/04 11:00:32;;;;;;;9.98;3.45;;;16.40;99.90;;;;;;4974272;28;20421;-78
2023/10/04 11:02:58;;;;;;;12.85;3.13;;;17.00;99.90;;;;;;4974153;28;20128;-76
2023/10/04 11:05:25;;;;;;;12.00;3.85;;;17.00;99.90;;;;;;4974160;28;20140;-76
2023/10/04 11:07:54;;;;;;;9.60;2.85;;;16.90;99.90;;;;;;4958055;28;20054;-76
2023/10/04 11:10:23;;;;;;;9.60;3.20;;;16.90;99.90;;;;;;4974221;28;20062;-77
2023/10/04 11:12:51;;;;;;;9.93;2.95;;;16.90;99.90;;;;;;4974624;28;20050;-76
2023/10/04 11:15:20;;;;;;;12.35;3.75;;;17.00;99.90;;;;;;4972391;28;20794;-76
2023/10/04 11:17:47;;;;;;;11.43;2.70;;;17.10;99.90;;;;;;4971708;28;20053;-79
2023/10/04 11:20:17;;;;;;;11.38;3.15;;;17.00;99.90;;;;;;4971426;28;20047;-74
2023/10/04 11:22:44;;;;;;;11.60;2.92;;;17.10;99.90;;;;;;4956979;28;20054;-74
2023/10/04 11:25:13;;;;;;;12.20;3.20;;;17.10;99.90;;;;;;4956406;28;20469;-75
2023/10/04 11:27:45;;;;;;;17.80;3.58;;;17.30;99.90;;;;;;4972404;28;20694;-76
2023/10/04 11:30:23;;;;;;;12.00;2.85;;;17.10;99.90;;;;;;4993963;28;20054;-78
2023/10/04 11:32:50;;;;;;;14.20;3.63;;;16.70;99.90;;;;;;4978081;28;20053;-78
2023/10/04 11:35:18;;;;;;;9.35;3.15;;;17.00;99.90;;;;;;4977726;28;20085;-77
2023/10/04 11:37:45;;;;;;;10.18;3.40;;;17.10;99.90;;;;;;4977728;28;20053;-74
2023/10/04 11:40:13;;;;;;;11.43;3.38;;;17.00;99.90;;;;;;4977434;28;20046;-76
2023/10/04 11:42:40;;;;;;;9.50;2.70;;;16.90;99.90;;;;;;4978008;28;20042;-78
2023/10/04 11:45:26;;;;;;;12.93;3.45;;;17.00;99.90;;;;;;4977937;28;20050;-76
2023/10/04 11:48:05;;;;;;;12.82;3.08;;;17.20;99.90;;;;;;4994043;28;20069;-76
2023/10/04 11:51:04;;;;;;;14.52;4.55;;;17.20;99.90;;;;;;4993571;28;20069;-78
2023/10/04 11:53:49;;;;;;;11.85;3.47;;;17.20;99.90;;;;;;4963929;28;20149;-76
2023/10/04 11:56:15;;;;;;;12.20;3.90;;;17.60;99.90;;;;;;4974131;28;20211;-74
2023/10/04 11:58:51;;;;;;;17.08;4.43;;;17.30;99.90;;;;;;4974784;28;20716;-76
2023/10/04 12:01:18;;;;;;;11.90;3.53;;;17.70;99.90;;;;;;4973754;28;20104;-77
2023/10/04 12:03:44;;;;;;;10.52;3.42;;;17.50;99.90;;;;;;4975358;28;20596;-76
2023/10/04 12:06:10;;;;;;;14.60;4.22;;;17.60;99.90;;;;;;4974756;28;20050;-75
2023/10/04 12:08:39;;;;;;;12.07;3.67;;;17.60;99.90;;;;;;4975119;28;20680;-78
2023/10/04 12:11:13;;;;;;;14.80;3.75;;;17.70;99.90;;;;;;4976043;28;20283;-81
2023/10/04 12:13:40;;;;;;;12.48;4.00;;;17.80;99.90;;;;;;4960929;28;20097;-78
2023/10/04 12:16:06;;;;;;;15.48;3.75;;;17.80;99.90;;;;;;4975520;28;20557;-76
2023/10/04 12:18:32;;;;;;;11.98;4.60;;;17.70;99.90;;;;;;4975484;28;20053;-77
2023/10/04 12:20:58;;;;;;;12.77;3.22;;;17.70;99.90;;;;;;4975553;28;20061;-74
2023/10/04 12:23:23;;;;;;;14.98;3.58;;;17.60;99.90;;;;;;4975750;28;20053;-77
2023/10/04 12:25:49;;;;;;;12.90;3.05;;;;;;;;;;4975767;28;20057;-78
2023/10/04 12:28:16;;;;;;;18.02;3.42;;;19.00;99.90;;;;;;4975931;28;20061;-77
2023/10/04 12:30:41;;;;;;;15.73;4.35;;;17.20;99.90;;;;;;4976305;28;20069;-76
2023/10/04 12:33:08;;;;;;;10.50;2.70;;;17.30;99.90;;;;;;4977067;28;20050;-78
2023/10/04 12:35:34;;;;;;;12.55;3.30;;;17.50;99.90;;;;;;4955380;28;20058;-75
2023/10/04 12:37:59;;;;;;;8.27;2.25;;;17.50;99.90;;;;;;4976053;28;20179;-78
2023/10/04 12:40:25;;;;;;;12.40;2.92;;;17.00;99.90;;;;;;4975762;28;20461;-77
2023/10/04 12:42:54;;;;;;;13.10;3.90;;;17.30;99.90;;;;;;4992960;28;20046;-76
2023/10/04 12:45:20;;;;;;;19.42;3.70;;;17.30;99.90;;;;;;4941841;28;20047;-76
2023/10/04 12:47:47;;;;;;;10.38;2.88;;;17.20;99.90;;;;;;4946652;28;20085;-77
2023/10/04 12:50:16;;;;;;;10.43;3.33;;;17.30;99.90;;;;;;4932764;28;20056;-79
2023/10/04 12:52:44;;;;;;;19.23;3.95;;;17.30;99.90;;;;;;4954834;28;20065;-77
2023/10/04 12:55:14;;;;;;;13.02;3.70;;;17.40;99.90;;;;;;4952830;28;20062;-78
2023/10/04 12:57:40;;;;;;;10.88;2.92;;;17.40;99.90;;;;;;4961856;28;20058;-74
2023/10/04 13:00:13;;;;;;;12.30;2.67;;;17.50;99.90;;;;;;4961197;28;20141;-76
2023/10/04 13:02:43;;;;;;;11.05;2.92;;;17.50;99.90;;;;;;4946190;28;20121;-77
2023/10/04 13:05:13;;;;;;;11.85;3.13;;;17.40;99.90;;;;;;4938868;28;20158;-74
2023/10/04 13:07:40;;;;;;;13.18;3.65;;;17.60;99.90;;;;;;4945065;28;20854;-77
2023/10/04 13:10:09;;;;;;;12.70;3.03;;;17.30;99.90;;;;;;4953892;28;20990;-78
2023/10/04 13:12:39;;;;;;;11.38;3.45;;;17.30;99.90;;;;;;4949731;28;20931;-75
2023/10/04 13:15:06;;;;;;;12.52;3.97;;;17.10;99.90;;;;;;4942240;28;20074;-73
2023/10/04 13:17:32;;;;;;;9.18;2.67;;;16.90;99.90;;;;;;4935238;28;20152;-76
2023/10/04 13:20:03;;;;;;;7.85;2.40;;;17.30;99.90;;;;;;4945706;28;20054;-78
2023/10/04 13:22:29;;;;;;;11.15;2.72;;;17.20;99.90;;;;;;4940212;28;20091;-75
2023/10/04 13:24:56;;;;;;;14.77;2.90;;;17.80;99.90;;;;;;4918218;28;20101;-79
2023/10/04 13:27:21;;;;;;;12.07;3.03;;;17.00;99.90;;;;;;4933149;28;20058;-75